sensor_id;sensor_type;location;lat;lon;timestamp;P1;durP1;ratioP1;P2;durP2;ratioP2
41309;SDS011;27057;51.438;-0.010;2023-08-24T00:02:16;5.60;;;2.67;;
41309;SDS011;27057;51.438;-0.010;2023-08-24T00:04:43;11.32;;;2.95;;
41309;SDS011;27057;51.438;-0.010;2023-08-24T00:07:11;8.13;;;3.30;;
41309;SDS011;27057;51.438;-0.010;2023-08-24T00:09:38;8.27;;;2.80;;
41309;SDS011;27057;51.438;-0.010;2023-08-24T00:12:05;19.50;;;3.25;;
41309;SDS011;27057;51.438;-0.010;2023-08-24T00:14:33;7.30;;;3.00;;
41309;SDS011;27057;51.438;-0.010;2023-08-24T00:17:00;7.43;;;2.80;;
41309;SDS011;27057;51.438;-0.010;2023-08-24T00:19:28;6.50;;;2.63;;
41309;SDS011;27057;51.438;-0.010;2023-08-24T00:21:55;8.48;;;2.78;;
41309;SDS011;27057;51.438;-0.010;2023-08-24T00:24:22;10.55;;;3.03;;
41309;SDS011;27057;51.438;-0.010;2023-08-24T00:26:50;12.13;;;3.08;;
41309;SDS011;27057;51.438;-0.010;2023-08-24T00:29:17;16.35;;;3.65;;
41309;SDS011;27057;51.438;-0.010;2023-08-24T00:31:44;6.97;;;2.88;;
41309;SDS011;27057;51.438;-0.010;2023-08-24T00:34:12;11.95;;;3.03;;
41309;SDS011;27057;51.438;-0.010;2023-08-24T00:36:39;10.70;;;2.88;;
41309;SDS011;27057;51.438;-0.010;2023-08-24T00:39:06;6.75;;;3.15;;
41309;SDS011;27057;51.438;-0.010;2023-08-24T00:41:36;10.68;;;3.20;;
41309;SDS011;27057;51.438;-0.010;2023-08-24T00:44:03;8.00;;;2.63;;
41309;SDS011;27057;51.438;-0.010;2023-08-24T00:46:31;9.95;;;3.67;;
41309;SDS011;27057;51.438;-0.010;2023-08-24T00:48:59;13.13;;;3.13;;
41309;SDS011;27057;51.438;-0.010;2023-08-24T00:51:27;4.75;;;2.40;;
41309;SDS011;27057;51.438;-0.010;2023-08-24T00:53:54;11.90;;;3.33;;
41309;SDS011;27057;51.438;-0.010;2023-08-24T00:56:24;8.38;;;2.80;;
41309;SDS011;27057;51.438;-0.010;2023-08-24T00:58:51;8.35;;;3.25;;
41309;SDS011;27057;51.438;-0.010;2023-08-24T01:01:21;8.55;;;3.03;;
41309;SDS011;27057;51.438;-0.010;2023-08-24T01:03:48;11.45;;;3.22;;
41309;SDS011;27057;51.438;-0.010;2023-08-24T01:06:16;14.00;;;3.35;;
41309;SDS011;27057;51.438;-0.010;2023-08-24T01:08:44;12.25;;;3.47;;
41309;SDS011;27057;51.438;-0.010;2023-08-24T01:11:13;12.95;;;2.88;;
41309;SDS011;27057;51.438;-0.010;2023-08-24T01:16:43;12.05;;;3.72;;
41309;SDS011;27057;51.438;-0.010;2023-08-24T01:19:34;6.28;;;2.67;;
41309;SDS011;27057;51.438;-0.010;2023-08-24T01:22:01;9.23;;;3.38;;
41309;SDS011;27057;51.438;-0.010;2023-08-24T01:24:35;9.93;;;3.42;;
41309;SDS011;27057;51.438;-0.010;2023-08-24T01:27:06;13.90;;;3.67;;
41309;SDS011;27057;51.438;-0.010;2023-08-24T01:29:34;10.27;;;3.03;;
41309;SDS011;27057;51.438;-0.010;2023-08-24T01:32:02;10.98;;;3.45;;
41309;SDS011;27057;51.438;-0.010;2023-08-24T01:34:30;11.48;;;3.00;;
41309;SDS011;27057;51.438;-0.010;2023-08-24T01:36:57;5.63;;;2.85;;
41309;SDS011;27057;51.438;-0.010;2023-08-24T01:39:35;10.95;;;3.50;;
41309;SDS011;27057;51.438;-0.010;2023-08-24T01:42:19;12.98;;;3.67;;
41309;SDS011;27057;51.438;-0.010;2023-08-24T01:44:49;12.82;;;3.40;;
41309;SDS011;27057;51.438;-0.010;2023-08-24T01:47:18;9.18;;;3.67;;
41309;SDS011;27057;51.438;-0.010;2023-08-24T01:49:48;10.82;;;3.17;;
41309;SDS011;27057;51.438;-0.010;2023-08-24T01:52:15;8.82;;;3.45;;
41309;SDS011;27057;51.438;-0.010;2023-08-24T01:54:44;12.13;;;3.60;;
41309;SDS011;27057;51.438;-0.010;2023-08-24T01:57:11;16.35;;;3.88;;
41309;SDS011;27057;51.438;-0.010;2023-08-24T01:59:39;11.80;;;3.65;;
41309;SDS011;27057;51.438;-0.010;2023-08-24T02:02:07;6.53;;;3.15;;
41309;SDS011;27057;51.438;-0.010;2023-08-24T02:04:34;8.40;;;3.20;;
41309;SDS011;27057;51.438;-0.010;2023-08-24T02:07:01;16.70;;;3.88;;
41309;SDS011;27057;51.438;-0.010;2023-08-24T02:09:29;8.32;;;3.22;;
41309;SDS011;27057;51.438;-0.010;2023-08-24T02:11:57;9.13;;;3.45;;
41309;SDS011;27057;51.438;-0.010;2023-08-24T02:14:25;10.75;;;3.88;;
41309;SDS011;27057;51.438;-0.010;2023-08-24T02:16:52;12.63;;;3.47;;
41309;SDS011;27057;51.438;-0.010;2023-08-24T02:19:19;7.68;;;3.10;;
41309;SDS011;27057;51.438;-0.010;2023-08-24T02:21:47;10.43;;;3.88;;
41309;SDS011;27057;51.438;-0.010;2023-08-24T02:24:14;11.35;;;4.25;;
41309;SDS011;27057;51.438;-0.010;2023-08-24T02:26:41;11.27;;;3.83;;
41309;SDS011;27057;51.438;-0.010;2023-08-24T02:29:09;7.78;;;4.28;;
41309;SDS011;27057;51.438;-0.010;2023-08-24T02:31:36;15.63;;;4.38;;
41309;SDS011;27057;51.438;-0.010;2023-08-24T02:34:04;13.02;;;4.80;;
41309;SDS011;27057;51.438;-0.010;2023-08-24T02:36:31;10.50;;;4.45;;
41309;SDS011;27057;51.438;-0.010;2023-08-24T02:39:00;22.02;;;5.10;;
41309;SDS011;27057;51.438;-0.010;2023-08-24T02:41:27;9.73;;;4.45;;
41309;SDS011;27057;51.438;-0.010;2023-08-24T02:43:56;14.82;;;5.28;;
41309;SDS011;27057;51.438;-0.010;2023-08-24T02:46:23;14.93;;;4.22;;
41309;SDS011;27057;51.438;-0.010;2023-08-24T02:48:50;10.35;;;5.05;;
41309;SDS011;27057;51.438;-0.010;2023-08-24T02:51:19;15.63;;;5.03;;
41309;SDS011;27057;51.438;-0.010;2023-08-24T02:53:48;12.48;;;6.00;;
41309;SDS011;27057;51.438;-0.010;2023-08-24T02:56:16;14.60;;;5.75;;
41309;SDS011;27057;51.438;-0.010;2023-08-24T02:58:43;11.82;;;4.97;;
41309;SDS011;27057;51.438;-0.010;2023-08-24T03:01:10;11.73;;;4.93;;
41309;SDS011;27057;51.438;-0.010;2023-08-24T03:03:38;21.08;;;5.63;;
41309;SDS011;27057;51.438;-0.010;2023-08-24T03:06:06;13.07;;;5.32;;
41309;SDS011;27057;51.438;-0.010;2023-08-24T03:08:35;15.05;;;5.68;;
41309;SDS011;27057;51.438;-0.010;2023-08-24T03:11:04;12.48;;;5.60;;
41309;SDS011;27057;51.438;-0.010;2023-08-24T03:13:31;9.00;;;5.28;;
41309;SDS011;27057;51.438;-0.010;2023-08-24T03:16:05;11.80;;;6.20;;
41309;SDS011;27057;51.438;-0.010;2023-08-24T03:18:33;15.05;;;5.50;;
41309;SDS011;27057;51.438;-0.010;2023-08-24T03:21:03;29.42;;;5.80;;
41309;SDS011;27057;51.438;-0.010;2023-08-24T03:23:32;21.65;;;5.85;;
41309;SDS011;27057;51.438;-0.010;2023-08-24T03:26:00;15.70;;;6.35;;
41309;SDS011;27057;51.438;-0.010;2023-08-24T03:28:27;20.33;;;5.28;;
41309;SDS011;27057;51.438;-0.010;2023-08-24T03:30:54;13.68;;;5.40;;
41309;SDS011;27057;51.438;-0.010;2023-08-24T03:33:22;21.30;;;4.82;;
41309;SDS011;27057;51.438;-0.010;2023-08-24T03:35:50;10.77;;;5.78;;
41309;SDS011;27057;51.438;-0.010;2023-08-24T03:38:19;20.00;;;5.90;;
41309;SDS011;27057;51.438;-0.010;2023-08-24T03:40:46;13.82;;;5.57;;
41309;SDS011;27057;51.438;-0.010;2023-08-24T03:43:13;19.83;;;6.65;;
41309;SDS011;27057;51.438;-0.010;2023-08-24T03:45:41;25.75;;;7.18;;
41309;SDS011;27057;51.438;-0.010;2023-08-24T03:48:10;19.02;;;6.40;;
41309;SDS011;27057;51.438;-0.010;2023-08-24T03:50:38;14.23;;;6.00;;
41309;SDS011;27057;51.438;-0.010;2023-08-24T03:53:06;15.27;;;5.82;;
41309;SDS011;27057;51.438;-0.010;2023-08-24T03:55:33;16.00;;;6.63;;
41309;SDS011;27057;51.438;-0.010;2023-08-24T03:58:01;15.05;;;5.93;;
41309;SDS011;27057;51.438;-0.010;2023-08-24T04:00:28;14.93;;;6.55;;
41309;SDS011;27057;51.438;-0.010;2023-08-24T04:02:56;17.45;;;5.97;;
41309;SDS011;27057;51.438;-0.010;2023-08-24T04:05:25;16.27;;;6.75;;
41309;SDS011;27057;51.438;-0.010;2023-08-24T04:07:53;17.90;;;6.00;;
41309;SDS011;27057;51.438;-0.010;2023-08-24T04:10:20;11.55;;;5.88;;
41309;SDS011;27057;51.438;-0.010;2023-08-24T04:12:48;24.83;;;6.50;;
41309;SDS011;27057;51.438;-0.010;2023-08-24T04:15:15;22.05;;;6.80;;
41309;SDS011;27057;51.438;-0.010;2023-08-24T04:17:42;13.77;;;5.53;;
41309;SDS011;27057;51.438;-0.010;2023-08-24T04:20:10;14.88;;;6.03;;
41309;SDS011;27057;51.438;-0.010;2023-08-24T04:22:38;15.55;;;6.10;;
41309;SDS011;27057;51.438;-0.010;2023-08-24T04:25:05;19.40;;;6.25;;
41309;SDS011;27057;51.438;-0.010;2023-08-24T04:27:33;17.48;;;6.30;;
41309;SDS011;27057;51.438;-0.010;2023-08-24T04:30:00;18.55;;;6.10;;
41309;SDS011;27057;51.438;-0.010;2023-08-24T04:32:28;21.05;;;6.40;;
41309;SDS011;27057;51.438;-0.010;2023-08-24T04:34:55;11.38;;;4.75;;
41309;SDS011;27057;51.438;-0.010;2023-08-24T04:37:23;18.35;;;6.18;;
41309;SDS011;27057;51.438;-0.010;2023-08-24T04:39:50;14.25;;;5.38;;
41309;SDS011;27057;51.438;-0.010;2023-08-24T04:42:17;17.27;;;5.93;;
41309;SDS011;27057;51.438;-0.010;2023-08-24T04:44:45;26.13;;;6.63;;
41309;SDS011;27057;51.438;-0.010;2023-08-24T04:47:12;12.45;;;6.32;;
41309;SDS011;27057;51.438;-0.010;2023-08-24T04:49:39;17.13;;;6.68;;
41309;SDS011;27057;51.438;-0.010;2023-08-24T04:52:06;12.20;;;5.03;;
41309;SDS011;27057;51.438;-0.010;2023-08-24T04:54:34;19.08;;;6.18;;
41309;SDS011;27057;51.438;-0.010;2023-08-24T04:57:02;17.30;;;5.47;;
41309;SDS011;27057;51.438;-0.010;2023-08-24T04:59:29;17.67;;;6.00;;
41309;SDS011;27057;51.438;-0.010;2023-08-24T05:01:56;20.67;;;5.25;;
41309;SDS011;27057;51.438;-0.010;2023-08-24T05:04:24;15.05;;;5.30;;
41309;SDS011;27057;51.438;-0.010;2023-08-24T05:06:52;21.35;;;5.63;;
41309;SDS011;27057;51.438;-0.010;2023-08-24T05:09:20;12.40;;;5.32;;
41309;SDS011;27057;51.438;-0.010;2023-08-24T05:11:47;20.85;;;6.28;;
41309;SDS011;27057;51.438;-0.010;2023-08-24T05:14:15;18.83;;;6.45;;
41309;SDS011;27057;51.438;-0.010;2023-08-24T05:16:42;14.25;;;4.70;;
41309;SDS011;27057;51.438;-0.010;2023-08-24T05:19:09;21.88;;;5.57;;
41309;SDS011;27057;51.438;-0.010;2023-08-24T05:21:37;14.77;;;5.13;;
41309;SDS011;27057;51.438;-0.010;2023-08-24T05:24:04;19.50;;;6.10;;
41309;SDS011;27057;51.438;-0.010;2023-08-24T05:26:31;22.65;;;5.15;;
41309;SDS011;27057;51.438;-0.010;2023-08-24T05:28:59;20.60;;;5.18;;
41309;SDS011;27057;51.438;-0.010;2023-08-24T05:31:27;22.27;;;6.22;;
41309;SDS011;27057;51.438;-0.010;2023-08-24T05:33:55;11.73;;;5.65;;
41309;SDS011;27057;51.438;-0.010;2023-08-24T05:36:22;12.23;;;4.75;;
41309;SDS011;27057;51.438;-0.010;2023-08-24T05:38:49;17.45;;;5.82;;
41309;SDS011;27057;51.438;-0.010;2023-08-24T05:41:32;18.42;;;6.35;;
41309;SDS011;27057;51.438;-0.010;2023-08-24T05:44:00;15.90;;;5.45;;
41309;SDS011;27057;51.438;-0.010;2023-08-24T05:46:27;19.60;;;6.25;;
41309;SDS011;27057;51.438;-0.010;2023-08-24T05:48:55;21.48;;;7.28;;
41309;SDS011;27057;51.438;-0.010;2023-08-24T05:51:25;16.52;;;6.10;;
41309;SDS011;27057;51.438;-0.010;2023-08-24T05:53:52;15.18;;;6.53;;
41309;SDS011;27057;51.438;-0.010;2023-08-24T05:56:22;12.52;;;5.57;;
41309;SDS011;27057;51.438;-0.010;2023-08-24T05:58:49;17.48;;;5.50;;
41309;SDS011;27057;51.438;-0.010;2023-08-24T06:01:17;16.00;;;5.93;;
41309;SDS011;27057;51.438;-0.010;2023-08-24T06:03:44;25.83;;;6.40;;
41309;SDS011;27057;51.438;-0.010;2023-08-24T06:06:12;18.77;;;6.35;;
41309;SDS011;27057;51.438;-0.010;2023-08-24T06:08:39;15.02;;;6.43;;
41309;SDS011;27057;51.438;-0.010;2023-08-24T06:11:06;14.32;;;6.18;;
41309;SDS011;27057;51.438;-0.010;2023-08-24T06:13:34;17.63;;;7.38;;
41309;SDS011;27057;51.438;-0.010;2023-08-24T06:16:01;26.08;;;6.63;;
41309;SDS011;27057;51.438;-0.010;2023-08-24T06:18:29;11.40;;;6.20;;
41309;SDS011;27057;51.438;-0.010;2023-08-24T06:20:56;18.42;;;6.93;;
41309;SDS011;27057;51.438;-0.010;2023-08-24T06:23:23;16.23;;;6.13;;
41309;SDS011;27057;51.438;-0.010;2023-08-24T06:25:51;21.90;;;7.35;;
41309;SDS011;27057;51.438;-0.010;2023-08-24T06:28:18;13.82;;;6.05;;
41309;SDS011;27057;51.438;-0.010;2023-08-24T06:30:45;17.67;;;6.60;;
41309;SDS011;27057;51.438;-0.010;2023-08-24T06:33:16;14.27;;;6.65;;
41309;SDS011;27057;51.438;-0.010;2023-08-24T06:35:44;17.48;;;6.78;;
41309;SDS011;27057;51.438;-0.010;2023-08-24T06:38:11;34.00;;;7.35;;
41309;SDS011;27057;51.438;-0.010;2023-08-24T06:40:39;10.93;;;6.15;;
41309;SDS011;27057;51.438;-0.010;2023-08-24T06:43:07;16.55;;;6.32;;
41309;SDS011;27057;51.438;-0.010;2023-08-24T06:45:34;21.73;;;6.78;;
41309;SDS011;27057;51.438;-0.010;2023-08-24T06:48:01;15.40;;;6.72;;
41309;SDS011;27057;51.438;-0.010;2023-08-24T06:50:29;19.20;;;5.75;;
41309;SDS011;27057;51.438;-0.010;2023-08-24T06:52:58;14.77;;;6.63;;
41309;SDS011;27057;51.438;-0.010;2023-08-24T06:55:26;20.75;;;6.70;;
41309;SDS011;27057;51.438;-0.010;2023-08-24T06:57:54;15.60;;;6.47;;
41309;SDS011;27057;51.438;-0.010;2023-08-24T07:00:21;15.00;;;5.88;;
41309;SDS011;27057;51.438;-0.010;2023-08-24T07:02:51;21.45;;;8.10;;
41309;SDS011;27057;51.438;-0.010;2023-08-24T07:05:19;15.18;;;6.32;;
41309;SDS011;27057;51.438;-0.010;2023-08-24T07:07:47;28.83;;;7.30;;
41309;SDS011;27057;51.438;-0.010;2023-08-24T07:10:17;16.85;;;6.30;;
41309;SDS011;27057;51.438;-0.010;2023-08-24T07:12:45;13.63;;;6.20;;
41309;SDS011;27057;51.438;-0.010;2023-08-24T07:15:12;10.10;;;6.18;;
41309;SDS011;27057;51.438;-0.010;2023-08-24T07:17:40;18.73;;;6.38;;
41309;SDS011;27057;51.438;-0.010;2023-08-24T07:20:08;15.15;;;6.25;;
41309;SDS011;27057;51.438;-0.010;2023-08-24T07:22:36;19.67;;;6.28;;
41309;SDS011;27057;51.438;-0.010;2023-08-24T07:25:04;17.25;;;6.30;;
41309;SDS011;27057;51.438;-0.010;2023-08-24T07:27:32;20.35;;;7.22;;
41309;SDS011;27057;51.438;-0.010;2023-08-24T07:30:01;13.80;;;7.30;;
41309;SDS011;27057;51.438;-0.010;2023-08-24T07:32:48;20.00;;;7.93;;
41309;SDS011;27057;51.438;-0.010;2023-08-24T07:35:15;19.10;;;6.53;;
41309;SDS011;27057;51.438;-0.010;2023-08-24T07:37:43;14.85;;;6.90;;
41309;SDS011;27057;51.438;-0.010;2023-08-24T07:40:10;19.08;;;7.15;;
41309;SDS011;27057;51.438;-0.010;2023-08-24T07:42:45;20.05;;;7.18;;
41309;SDS011;27057;51.438;-0.010;2023-08-24T07:45:13;17.02;;;6.85;;
41309;SDS011;27057;51.438;-0.010;2023-08-24T07:47:41;16.52;;;6.88;;
41309;SDS011;27057;51.438;-0.010;2023-08-24T07:50:09;20.15;;;6.90;;
41309;SDS011;27057;51.438;-0.010;2023-08-24T07:52:37;15.75;;;7.60;;
41309;SDS011;27057;51.438;-0.010;2023-08-24T07:55:06;18.65;;;7.55;;
41309;SDS011;27057;51.438;-0.010;2023-08-24T07:57:34;17.40;;;8.00;;
41309;SDS011;27057;51.438;-0.010;2023-08-24T08:00:03;16.58;;;7.22;;
41309;SDS011;27057;51.438;-0.010;2023-08-24T08:02:41;23.10;;;8.00;;
41309;SDS011;27057;51.438;-0.010;2023-08-24T08:05:08;20.25;;;7.40;;
41309;SDS011;27057;51.438;-0.010;2023-08-24T08:07:39;23.83;;;7.00;;
41309;SDS011;27057;51.438;-0.010;2023-08-24T08:10:07;19.90;;;7.45;;
41309;SDS011;27057;51.438;-0.010;2023-08-24T08:12:34;17.05;;;8.00;;
41309;SDS011;27057;51.438;-0.010;2023-08-24T08:15:02;18.17;;;7.25;;
41309;SDS011;27057;51.438;-0.010;2023-08-24T08:17:29;16.27;;;8.30;;
41309;SDS011;27057;51.438;-0.010;2023-08-24T08:19:57;21.05;;;7.65;;
41309;SDS011;27057;51.438;-0.010;2023-08-24T08:22:25;24.85;;;8.75;;
41309;SDS011;27057;51.438;-0.010;2023-08-24T08:24:52;28.17;;;9.43;;
41309;SDS011;27057;51.438;-0.010;2023-08-24T08:27:23;19.05;;;7.60;;
41309;SDS011;27057;51.438;-0.010;2023-08-24T08:29:50;23.08;;;8.48;;
41309;SDS011;27057;51.438;-0.010;2023-08-24T08:32:18;22.33;;;7.57;;
41309;SDS011;27057;51.438;-0.010;2023-08-24T08:34:45;22.00;;;9.55;;
41309;SDS011;27057;51.438;-0.010;2023-08-24T08:37:13;14.13;;;8.10;;
41309;SDS011;27057;51.438;-0.010;2023-08-24T08:39:40;24.23;;;8.07;;
41309;SDS011;27057;51.438;-0.010;2023-08-24T08:42:11;19.75;;;8.52;;
41309;SDS011;27057;51.438;-0.010;2023-08-24T08:44:40;19.17;;;8.40;;
41309;SDS011;27057;51.438;-0.010;2023-08-24T08:47:10;16.98;;;7.93;;
41309;SDS011;27057;51.438;-0.010;2023-08-24T08:49:39;24.95;;;8.35;;
41309;SDS011;27057;51.438;-0.010;2023-08-24T08:52:09;21.00;;;8.40;;
41309;SDS011;27057;51.438;-0.010;2023-08-24T08:54:36;15.60;;;7.55;;
41309;SDS011;27057;51.438;-0.010;2023-08-24T08:57:04;24.05;;;8.05;;
41309;SDS011;27057;51.438;-0.010;2023-08-24T08:59:32;17.95;;;7.95;;
41309;SDS011;27057;51.438;-0.010;2023-08-24T09:02:03;29.33;;;10.25;;
41309;SDS011;27057;51.438;-0.010;2023-08-24T09:04:31;22.55;;;8.30;;
41309;SDS011;27057;51.438;-0.010;2023-08-24T09:06:59;22.77;;;8.10;;
41309;SDS011;27057;51.438;-0.010;2023-08-24T09:09:37;22.33;;;8.50;;
41309;SDS011;27057;51.438;-0.010;2023-08-24T09:12:05;21.27;;;8.60;;
41309;SDS011;27057;51.438;-0.010;2023-08-24T09:14:33;23.08;;;8.00;;
41309;SDS011;27057;51.438;-0.010;2023-08-24T09:17:01;22.23;;;8.60;;
41309;SDS011;27057;51.438;-0.010;2023-08-24T09:19:30;27.65;;;10.02;;
41309;SDS011;27057;51.438;-0.010;2023-08-24T09:22:02;27.58;;;8.10;;
41309;SDS011;27057;51.438;-0.010;2023-08-24T09:24:32;22.00;;;9.48;;
41309;SDS011;27057;51.438;-0.010;2023-08-24T09:27:13;21.25;;;8.95;;
41309;SDS011;27057;51.438;-0.010;2023-08-24T09:29:42;22.58;;;8.57;;
41309;SDS011;27057;51.438;-0.010;2023-08-24T09:32:09;32.83;;;8.45;;
41309;SDS011;27057;51.438;-0.010;2023-08-24T09:34:37;17.17;;;8.48;;
41309;SDS011;27057;51.438;-0.010;2023-08-24T09:37:05;20.20;;;8.25;;
41309;SDS011;27057;51.438;-0.010;2023-08-24T09:39:41;14.77;;;7.70;;
41309;SDS011;27057;51.438;-0.010;2023-08-24T09:42:08;23.13;;;8.85;;
41309;SDS011;27057;51.438;-0.010;2023-08-24T09:44:36;21.63;;;8.35;;
41309;SDS011;27057;51.438;-0.010;2023-08-24T09:47:09;23.92;;;7.90;;
41309;SDS011;27057;51.438;-0.010;2023-08-24T09:49:40;19.67;;;7.53;;
41309;SDS011;27057;51.438;-0.010;2023-08-24T09:52:08;24.98;;;9.13;;
41309;SDS011;27057;51.438;-0.010;2023-08-24T09:54:37;21.60;;;9.05;;
41309;SDS011;27057;51.438;-0.010;2023-08-24T09:57:07;23.35;;;7.85;;
41309;SDS011;27057;51.438;-0.010;2023-08-24T09:59:36;17.77;;;8.63;;
41309;SDS011;27057;51.438;-0.010;2023-08-24T10:02:10;27.80;;;8.02;;
41309;SDS011;27057;51.438;-0.010;2023-08-24T10:04:44;19.60;;;8.15;;
41309;SDS011;27057;51.438;-0.010;2023-08-24T10:07:15;22.33;;;7.90;;
41309;SDS011;27057;51.438;-0.010;2023-08-24T10:09:56;23.63;;;8.05;;
41309;SDS011;27057;51.438;-0.010;2023-08-24T10:12:31;19.73;;;9.10;;
41309;SDS011;27057;51.438;-0.010;2023-08-24T10:15:03;17.05;;;8.43;;
41309;SDS011;27057;51.438;-0.010;2023-08-24T10:17:35;18.83;;;8.95;;
41309;SDS011;27057;51.438;-0.010;2023-08-24T10:20:04;36.50;;;10.95;;
41309;SDS011;27057;51.438;-0.010;2023-08-24T10:22:36;20.08;;;8.15;;
41309;SDS011;27057;51.438;-0.010;2023-08-24T10:25:04;25.35;;;8.95;;
41309;SDS011;27057;51.438;-0.010;2023-08-24T10:27:33;18.13;;;8.75;;
41309;SDS011;27057;51.438;-0.010;2023-08-24T10:30:01;21.35;;;9.70;;
41309;SDS011;27057;51.438;-0.010;2023-08-24T10:32:29;21.35;;;10.93;;
41309;SDS011;27057;51.438;-0.010;2023-08-24T10:34:57;22.08;;;11.00;;
41309;SDS011;27057;51.438;-0.010;2023-08-24T10:37:25;26.35;;;8.57;;
41309;SDS011;27057;51.438;-0.010;2023-08-24T10:39:54;28.33;;;8.75;;
41309;SDS011;27057;51.438;-0.010;2023-08-24T10:42:21;24.20;;;9.02;;
41309;SDS011;27057;51.438;-0.010;2023-08-24T10:44:49;17.30;;;7.75;;
41309;SDS011;27057;51.438;-0.010;2023-08-24T10:47:20;29.58;;;10.30;;
41309;SDS011;27057;51.438;-0.010;2023-08-24T10:55:03;17.33;;;7.55;;
41309;SDS011;27057;51.438;-0.010;2023-08-24T10:57:35;16.42;;;7.20;;
41309;SDS011;27057;51.438;-0.010;2023-08-24T11:05:15;12.80;;;4.38;;
41309;SDS011;27057;51.438;-0.010;2023-08-24T11:08:05;10.73;;;4.68;;
41309;SDS011;27057;51.438;-0.010;2023-08-24T11:13:10;8.65;;;4.13;;
41309;SDS011;27057;51.438;-0.010;2023-08-24T11:15:42;11.00;;;3.80;;
41309;SDS011;27057;51.438;-0.010;2023-08-24T11:20:55;13.80;;;5.10;;
41309;SDS011;27057;51.438;-0.010;2023-08-24T11:23:30;10.70;;;3.80;;
41309;SDS011;27057;51.438;-0.010;2023-08-24T11:25:58;9.05;;;4.20;;
41309;SDS011;27057;51.438;-0.010;2023-08-24T11:28:27;14.60;;;3.60;;
41309;SDS011;27057;51.438;-0.010;2023-08-24T11:30:55;14.13;;;5.07;;
41309;SDS011;27057;51.438;-0.010;2023-08-24T11:33:31;19.48;;;4.55;;
41309;SDS011;27057;51.438;-0.010;2023-08-24T11:36:00;12.90;;;3.28;;
41309;SDS011;27057;51.438;-0.010;2023-08-24T11:38:38;10.88;;;3.83;;
41309;SDS011;27057;51.438;-0.010;2023-08-24T11:41:10;11.70;;;3.80;;
41309;SDS011;27057;51.438;-0.010;2023-08-24T11:43:48;13.75;;;4.30;;
41309;SDS011;27057;51.438;-0.010;2023-08-24T11:46:18;15.60;;;3.33;;
41309;SDS011;27057;51.438;-0.010;2023-08-24T11:48:45;12.23;;;3.70;;
41309;SDS011;27057;51.438;-0.010;2023-08-24T11:51:13;10.80;;;4.00;;
41309;SDS011;27057;51.438;-0.010;2023-08-24T11:53:49;7.50;;;2.80;;
41309;SDS011;27057;51.438;-0.010;2023-08-24T11:56:16;14.35;;;4.60;;
41309;SDS011;27057;51.438;-0.010;2023-08-24T11:58:48;12.13;;;3.35;;
41309;SDS011;27057;51.438;-0.010;2023-08-24T12:01:17;7.25;;;3.85;;
41309;SDS011;27057;51.438;-0.010;2023-08-24T12:03:45;11.38;;;3.15;;
41309;SDS011;27057;51.438;-0.010;2023-08-24T12:06:13;8.60;;;3.30;;
41309;SDS011;27057;51.438;-0.010;2023-08-24T12:08:42;8.70;;;3.42;;
41309;SDS011;27057;51.438;-0.010;2023-08-24T12:11:13;14.80;;;3.30;;
41309;SDS011;27057;51.438;-0.010;2023-08-24T12:13:51;9.23;;;3.95;;
41309;SDS011;27057;51.438;-0.010;2023-08-24T12:16:22;7.50;;;3.30;;
41309;SDS011;27057;51.438;-0.010;2023-08-24T12:18:57;8.80;;;3.55;;
41309;SDS011;27057;51.438;-0.010;2023-08-24T12:21:32;11.75;;;3.45;;
41309;SDS011;27057;51.438;-0.010;2023-08-24T12:26:33;12.95;;;3.78;;
41309;SDS011;27057;51.438;-0.010;2023-08-24T12:29:08;8.00;;;3.03;;
41309;SDS011;27057;51.438;-0.010;2023-08-24T12:31:36;5.82;;;3.22;;
41309;SDS011;27057;51.438;-0.010;2023-08-24T12:36:32;9.45;;;3.55;;
41309;SDS011;27057;51.438;-0.010;2023-08-24T12:39:02;16.77;;;4.13;;
41309;SDS011;27057;51.438;-0.010;2023-08-24T12:41:31;10.65;;;3.78;;
41309;SDS011;27057;51.438;-0.010;2023-08-24T12:43:59;12.50;;;3.70;;
41309;SDS011;27057;51.438;-0.010;2023-08-24T12:46:32;11.88;;;3.38;;
41309;SDS011;27057;51.438;-0.010;2023-08-24T12:49:00;5.55;;;2.67;;
41309;SDS011;27057;51.438;-0.010;2023-08-24T12:51:30;7.53;;;2.95;;
41309;SDS011;27057;51.438;-0.010;2023-08-24T12:53:57;15.25;;;3.53;;
41309;SDS011;27057;51.438;-0.010;2023-08-24T12:56:25;10.88;;;2.97;;
41309;SDS011;27057;51.438;-0.010;2023-08-24T12:58:52;13.45;;;4.55;;
41309;SDS011;27057;51.438;-0.010;2023-08-24T13:01:20;8.80;;;3.88;;
41309;SDS011;27057;51.438;-0.010;2023-08-24T13:03:48;7.25;;;3.67;;
41309;SDS011;27057;51.438;-0.010;2023-08-24T13:06:15;14.45;;;3.42;;
41309;SDS011;27057;51.438;-0.010;2023-08-24T13:08:45;7.85;;;3.83;;
41309;SDS011;27057;51.438;-0.010;2023-08-24T13:11:13;8.90;;;4.72;;
41309;SDS011;27057;51.438;-0.010;2023-08-24T13:13:40;15.32;;;4.80;;
41309;SDS011;27057;51.438;-0.010;2023-08-24T13:16:08;9.82;;;4.57;;
41309;SDS011;27057;51.438;-0.010;2023-08-24T13:18:35;14.00;;;4.70;;
41309;SDS011;27057;51.438;-0.010;2023-08-24T13:21:03;7.45;;;3.03;;
41309;SDS011;27057;51.438;-0.010;2023-08-24T13:23:30;14.05;;;4.20;;
41309;SDS011;27057;51.438;-0.010;2023-08-24T13:25:57;13.95;;;4.15;;
41309;SDS011;27057;51.438;-0.010;2023-08-24T13:28:26;9.70;;;3.50;;
41309;SDS011;27057;51.438;-0.010;2023-08-24T13:30:54;9.93;;;3.25;;
41309;SDS011;27057;51.438;-0.010;2023-08-24T13:33:22;10.55;;;3.63;;
41309;SDS011;27057;51.438;-0.010;2023-08-24T13:35:49;10.32;;;3.65;;
41309;SDS011;27057;51.438;-0.010;2023-08-24T13:38:16;12.55;;;4.57;;
41309;SDS011;27057;51.438;-0.010;2023-08-24T13:40:44;12.52;;;3.83;;
41309;SDS011;27057;51.438;-0.010;2023-08-24T13:43:15;7.00;;;3.70;;
41309;SDS011;27057;51.438;-0.010;2023-08-24T13:45:43;10.35;;;3.38;;
41309;SDS011;27057;51.438;-0.010;2023-08-24T13:48:10;10.52;;;3.90;;
41309;SDS011;27057;51.438;-0.010;2023-08-24T13:50:38;10.15;;;3.42;;
41309;SDS011;27057;51.438;-0.010;2023-08-24T13:53:05;4.57;;;2.60;;
41309;SDS011;27057;51.438;-0.010;2023-08-24T13:55:32;7.38;;;2.85;;
41309;SDS011;27057;51.438;-0.010;2023-08-24T13:58:00;10.95;;;3.35;;
41309;SDS011;27057;51.438;-0.010;2023-08-24T14:00:27;12.88;;;3.45;;
41309;SDS011;27057;51.438;-0.010;2023-08-24T14:02:54;17.38;;;3.53;;
41309;SDS011;27057;51.438;-0.010;2023-08-24T14:05:22;6.35;;;2.67;;
41309;SDS011;27057;51.438;-0.010;2023-08-24T14:07:49;9.20;;;2.58;;
41309;SDS011;27057;51.438;-0.010;2023-08-24T14:10:17;8.82;;;2.65;;
41309;SDS011;27057;51.438;-0.010;2023-08-24T14:12:45;6.70;;;3.25;;
41309;SDS011;27057;51.438;-0.010;2023-08-24T14:15:13;11.18;;;3.70;;
41309;SDS011;27057;51.438;-0.010;2023-08-24T14:17:40;8.93;;;3.15;;
41309;SDS011;27057;51.438;-0.010;2023-08-24T14:20:08;16.17;;;4.03;;
41309;SDS011;27057;51.438;-0.010;2023-08-24T14:22:36;12.52;;;3.38;;
41309;SDS011;27057;51.438;-0.010;2023-08-24T14:25:03;9.85;;;3.50;;
41309;SDS011;27057;51.438;-0.010;2023-08-24T14:27:31;13.40;;;3.80;;
41309;SDS011;27057;51.438;-0.010;2023-08-24T14:29:58;9.63;;;3.80;;
41309;SDS011;27057;51.438;-0.010;2023-08-24T14:32:26;5.85;;;3.25;;
41309;SDS011;27057;51.438;-0.010;2023-08-24T14:34:53;8.95;;;4.40;;
41309;SDS011;27057;51.438;-0.010;2023-08-24T14:37:21;15.25;;;3.92;;
41309;SDS011;27057;51.438;-0.010;2023-08-24T14:39:48;11.65;;;3.97;;
41309;SDS011;27057;51.438;-0.010;2023-08-24T14:42:15;11.00;;;4.43;;
41309;SDS011;27057;51.438;-0.010;2023-08-24T14:44:42;14.68;;;4.13;;
41309;SDS011;27057;51.438;-0.010;2023-08-24T14:47:10;8.07;;;3.90;;
41309;SDS011;27057;51.438;-0.010;2023-08-24T14:49:38;11.00;;;3.85;;
41309;SDS011;27057;51.438;-0.010;2023-08-24T14:52:05;17.10;;;4.15;;
41309;SDS011;27057;51.438;-0.010;2023-08-24T14:54:32;11.45;;;3.75;;
41309;SDS011;27057;51.438;-0.010;2023-08-24T14:57:00;15.57;;;4.28;;